• Join FlightAware (Why Join?)
  • Login
  • US Flag 
11:08AM EDT


 

Airport Tracker/Info


-or-


 

Live Flight TrackerFlight Track Log ✈ N49WC ✈ 03-May-2012 ✈ KSNA - MMLP / LAP

Flight Track Log - Related Links

Times and Time Zones

All times are in EDT time to prevent confusion due to time zone crossing. See the N49WC flight status page for this flight to view local times or setup timezone preferences in your user account.

Time Position Orientation Groundspeed Altitude Reporting Facility
EDT Latitude Longitude Course Direction KTS MPH feet Rate Location/Type
01:00PM 33.6500 -117.8833 203° Southwest 152 175 1,300  Level Southern California TRACON
01:00PM 33.6167 -117.9000 164° South 143 165 3,900 2,100 Climbing Southern California TRACON
01:01PM 33.5667 -117.8833 170° South 184 212 5,400 1,800 Climbing Southern California TRACON
01:03PM 33.5053 -117.8700 136° Southeast 210 242 7,900 2,040 Climbing Los Angeles Center
01:04PM 33.4642 -117.8217 129° Southeast 203 234 9,900 1,620 Climbing Los Angeles Center
01:05PM 33.4317 -117.7739 130° Southeast 203 234 11,200 1,500 Climbing Los Angeles Center
01:06PM 33.3925 -117.7183 129° Southeast 208 239 13,000 1,740 Climbing Los Angeles Center
01:07PM 33.3517 -117.6581 145° Southeast 221 254 14,700 1,560 Climbing Los Angeles Center
01:08PM 33.3000 -117.6147 142° Southeast 227 261 16,200 1,380 Climbing Los Angeles Center
01:09PM 33.2506 -117.5692 144° Southeast 227 261 17,500 1,140 Climbing Los Angeles Center
01:10PM 33.1947 -117.5211 143° Southeast 232 267 18,500 1,080 Climbing Los Angeles Center
01:11PM 33.1347 -117.4681 143° Southeast 245 282 19,700 1,140 Climbing Los Angeles Center
01:12PM 33.0789 -117.4175 143° Southeast 245 282 20,800 1,080 Climbing Los Angeles Center
01:13PM 33.0253 -117.3697 145° Southeast 245 282 21,900 1,080 Climbing Los Angeles Center
01:14PM 32.9714 -117.3244 143° Southeast 239 275 23,000 900 Climbing Los Angeles Center
01:15PM 32.9319 -117.2892 144° Southeast 239 275 23,800 960 Climbing Los Angeles Center
01:16PM 32.8719 -117.2364 144° Southeast 234 269 25,000 900 Climbing Los Angeles Center
01:17PM 32.8264 -117.1964 149° Southeast 234 269 25,700 780 Climbing Los Angeles Center
01:18PM 32.7706 -117.1561 144° Southeast 239 275 26,600 900 Climbing Los Angeles Center
01:19PM 32.7103 -117.1036 144° Southeast 239 275 27,500 720 Climbing Los Angeles Center
01:20PM 32.6586 -117.0586 143° Southeast 239 275 28,100 600 Climbing Los Angeles Center
01:21PM 32.6047 -117.0111 145° Southeast 239 275 28,800 600 Climbing Los Angeles Center
01:22PM 32.5508 -116.9664 141° Southeast 239 275 29,400 600 Climbing Los Angeles Center
01:23PM 32.4989 -116.9164 142° Southeast 239 275 30,000 600 Climbing Los Angeles Center
01:24PM 32.4450 -116.8669 127° Southeast 245 282 30,600 600 Climbing Los Angeles Center
01:31PM 32.4432 -116.8642 142° Southeast  Level FlightAware Approximate
01:32PM 32.3819 -116.8074 142° Southeast  Level FlightAware Approximate
01:33PM 32.3206 -116.7506 142° Southeast  Level FlightAware Approximate
01:34PM 32.2592 -116.6940 142° Southeast  Level FlightAware Approximate
01:35PM 32.1978 -116.6374 142° Southeast  Level FlightAware Approximate
01:36PM 32.1364 -116.5809 142° Southeast  Level FlightAware Approximate
01:37PM 32.0750 -116.5245 142° Southeast  Level FlightAware Approximate
01:38PM 32.0135 -116.4681 139° Southeast  Level FlightAware Approximate
01:39PM 31.9547 -116.4086 142° Southeast  Level FlightAware Approximate
01:40PM 31.8931 -116.3524 142° Southeast  Level FlightAware Approximate
01:41PM 31.8316 -116.2962 142° Southeast  Level FlightAware Approximate
01:42PM 31.7701 -116.2402 142° Southeast  Level FlightAware Approximate
01:43PM 31.7085 -116.1842 142° Southeast  Level FlightAware Approximate
01:44PM 31.6469 -116.1283 142° Southeast  Level FlightAware Approximate
01:45PM 31.5852 -116.0724 142° Southeast  Level FlightAware Approximate
01:46PM 31.5236 -116.0167 142° Southeast  Level FlightAware Approximate
01:47PM 31.4619 -115.9610 142° Southeast  Level FlightAware Approximate
01:48PM 31.4002 -115.9054 142° Southeast  Level FlightAware Approximate
01:49PM 31.3384 -115.8499 142° Southeast  Level FlightAware Approximate
01:50PM 31.2767 -115.7944 143° Southeast  Level FlightAware Approximate
01:51PM 31.2149 -115.7390 143° Southeast  Level FlightAware Approximate
01:52PM 31.1531 -115.6837 143° Southeast  Level FlightAware Approximate
01:53PM 31.0913 -115.6284 143° Southeast  Level FlightAware Approximate
01:54PM 31.0294 -115.5732 143° Southeast  Level FlightAware Approximate
01:55PM 30.9676 -115.5181 143° Southeast  Level FlightAware Approximate
01:56PM 30.9057 -115.4631 143° Southeast  Level FlightAware Approximate
01:57PM 30.8438 -115.4081 143° Southeast  Level FlightAware Approximate
01:58PM 30.7818 -115.3533 143° Southeast  Level FlightAware Approximate
01:59PM 30.7199 -115.2984 143° Southeast  Level FlightAware Approximate
02:00PM 30.6579 -115.2437 143° Southeast  Level FlightAware Approximate
02:01PM 30.5959 -115.1890 143° Southeast  Level FlightAware Approximate
02:02PM 30.5338 -115.1344 143° Southeast  Level FlightAware Approximate
02:03PM 30.4718 -115.0798 143° Southeast  Level FlightAware Approximate
02:04PM 30.4097 -115.0254 143° Southeast  Level FlightAware Approximate
02:05PM 30.3476 -114.9710 143° Southeast  Level FlightAware Approximate
02:06PM 30.2855 -114.9166 143° Southeast  Level FlightAware Approximate
02:07PM 30.2233 -114.8624 143° Southeast  Level FlightAware Approximate
02:08PM 30.1612 -114.8082 143° Southeast  Level FlightAware Approximate
02:09PM 30.0990 -114.7541 143° Southeast  Level FlightAware Approximate
02:10PM 30.0368 -114.7000 145° Southeast  Level FlightAware Approximate
02:11PM 29.9737 -114.6487 143° Southeast  Level FlightAware Approximate
02:12PM 29.9114 -114.5947 143° Southeast  Level FlightAware Approximate
02:13PM 29.8492 -114.5408 143° Southeast  Level FlightAware Approximate
02:14PM 29.7869 -114.4869 143° Southeast  Level FlightAware Approximate
02:15PM 29.7246 -114.4332 144° Southeast  Level FlightAware Approximate
02:16PM 29.6613 -114.3810 146° Southeast  Level FlightAware Approximate
02:17PM 29.5970 -114.3306 146° Southeast  Level FlightAware Approximate
02:18PM 29.5326 -114.2803 146° Southeast  Level FlightAware Approximate
02:19PM 29.4682 -114.2300 146° Southeast  Level FlightAware Approximate
02:20PM 29.4038 -114.1798 146° Southeast  Level FlightAware Approximate
02:21PM 29.3394 -114.1297 146° Southeast  Level FlightAware Approximate
02:22PM 29.2750 -114.0796 146° Southeast  Level FlightAware Approximate
02:23PM 29.2105 -114.0296 146° Southeast  Level FlightAware Approximate
02:24PM 29.1460 -113.9797 146° Southeast  Level FlightAware Approximate
02:25PM 29.0815 -113.9298 146° Southeast  Level FlightAware Approximate
02:26PM 29.0170 -113.8800 146° Southeast  Level FlightAware Approximate
02:27PM 28.9525 -113.8302 146° Southeast  Level FlightAware Approximate
02:28PM 28.8879 -113.7805 146° Southeast  Level FlightAware Approximate
02:29PM 28.8234 -113.7309 146° Southeast  Level FlightAware Approximate
02:30PM 28.7588 -113.6813 146° Southeast  Level FlightAware Approximate
02:31PM 28.6942 -113.6318 146° Southeast  Level FlightAware Approximate
02:32PM 28.6295 -113.5823 146° Southeast  Level FlightAware Approximate
02:33PM 28.5649 -113.5329 146° Southeast  Level FlightAware Approximate
02:34PM 28.5002 -113.4836 146° Southeast  Level FlightAware Approximate
02:35PM 28.4356 -113.4343 146° Southeast  Level FlightAware Approximate
02:36PM 28.3708 -113.3851 146° Southeast  Level FlightAware Approximate
02:37PM 28.3061 -113.3360 146° Southeast  Level FlightAware Approximate
02:38PM 28.2414 -113.2869 146° Southeast  Level FlightAware Approximate
02:39PM 28.1767 -113.2379 146° Southeast  Level FlightAware Approximate
02:40PM 28.1119 -113.1889 146° Southeast  Level FlightAware Approximate
02:41PM 28.0471 -113.1400 146° Southeast  Level FlightAware Approximate
02:42PM 27.9823 -113.0911 146° Southeast  Level FlightAware Approximate
02:43PM 27.9175 -113.0423 146° Southeast  Level FlightAware Approximate
02:44PM 27.8526 -112.9936 146° Southeast  Level FlightAware Approximate
02:45PM 27.7878 -112.9449 146° Southeast  Level FlightAware Approximate
02:46PM 27.7229 -112.8963 146° Southeast  Level FlightAware Approximate
02:47PM 27.6580 -112.8477 146° Southeast  Level FlightAware Approximate
02:48PM 27.5931 -112.7992 146° Southeast  Level FlightAware Approximate
02:49PM 27.5282 -112.7508 147° Southeast  Level FlightAware Approximate
02:50PM 27.4633 -112.7024 147° Southeast  Level FlightAware Approximate
02:51PM 27.3983 -112.6541 147° Southeast  Level FlightAware Approximate
02:52PM 27.3334 -112.6058 147° Southeast  Level FlightAware Approximate
02:53PM 27.2684 -112.5576 147° Southeast  Level FlightAware Approximate
02:54PM 27.2034 -112.5094 147° Southeast  Level FlightAware Approximate
02:55PM 27.1383 -112.4613 147° Southeast  Level FlightAware Approximate
02:56PM 27.0733 -112.4132 147° Southeast  Level FlightAware Approximate
02:57PM 27.0083 -112.3652 147° Southeast  Level FlightAware Approximate
02:58PM 26.9427 -112.3182 147° Southeast  Level FlightAware Approximate
02:59PM 26.8771 -112.2712 147° Southeast  Level FlightAware Approximate
03:00PM 26.8114 -112.2243 147° Southeast  Level FlightAware Approximate
03:01PM 26.7458 -112.1774 147° Southeast  Level FlightAware Approximate
03:02PM 26.6801 -112.1306 148° Southeast  Level FlightAware Approximate
03:03PM 26.6145 -112.0839 148° Southeast  Level FlightAware Approximate
03:04PM 26.5488 -112.0371 148° Southeast  Level FlightAware Approximate
03:05PM 26.4831 -111.9905 148° Southeast  Level FlightAware Approximate
03:06PM 26.4174 -111.9439 148° Southeast  Level FlightAware Approximate
03:07PM 26.3516 -111.8973 148° Southeast  Level FlightAware Approximate
03:08PM 26.2859 -111.8508 148° Southeast  Level FlightAware Approximate
03:09PM 26.2201 -111.8044 148° Southeast  Level FlightAware Approximate
03:10PM 26.1544 -111.7580 148° Southeast  Level FlightAware Approximate
03:11PM 26.0886 -111.7117 148° Southeast  Level FlightAware Approximate
03:12PM 26.0228 -111.6654 148° Southeast  Level FlightAware Approximate
03:13PM 25.9569 -111.6191 148° Southeast  Level FlightAware Approximate
03:14PM 25.8911 -111.5730 148° Southeast  Level FlightAware Approximate
03:15PM 25.8253 -111.5268 148° Southeast  Level FlightAware Approximate
03:16PM 25.7594 -111.4808 148° Southeast  Level FlightAware Approximate
03:17PM 25.6935 -111.4347 148° Southeast  Level FlightAware Approximate
03:18PM 25.6276 -111.3887 148° Southeast  Level FlightAware Approximate
03:19PM 25.5617 -111.3428 148° Southeast  Level FlightAware Approximate
03:20PM 25.4958 -111.2969 148° Southeast  Level FlightAware Approximate
03:21PM 25.4299 -111.2511 148° Southeast  Level FlightAware Approximate
03:22PM 25.3639 -111.2053 148° Southeast  Level FlightAware Approximate
03:23PM 25.2980 -111.1596 148° Southeast  Level FlightAware Approximate
03:24PM 25.2320 -111.1139 148° Southeast  Level FlightAware Approximate
03:25PM 25.1660 -111.0683 148° Southeast  Level FlightAware Approximate
03:26PM 25.1000 -111.0227 148° Southeast  Level FlightAware Approximate
03:27PM 25.0340 -110.9772 148° Southeast  Level FlightAware Approximate
03:28PM 24.9679 -110.9317 148° Southeast  Level FlightAware Approximate
03:29PM 24.9019 -110.8863 148° Southeast  Level FlightAware Approximate
03:30PM 24.8358 -110.8409 148° Southeast  Level FlightAware Approximate
03:31PM 24.7698 -110.7955 148° Southeast  Level FlightAware Approximate
03:32PM 24.7037 -110.7503 148° Southeast  Level FlightAware Approximate
03:33PM 24.6376 -110.7050 148° Southeast  Level FlightAware Approximate
03:34PM 24.5714 -110.6598 148° Southeast  Level FlightAware Approximate
03:35PM 24.5053 -110.6147 148° Southeast  Level FlightAware Approximate
03:36PM 24.4392 -110.5696 117° Southeast  Level FlightAware Approximate
03:37PM 24.4072 -110.5021 154° Southeast  Level FlightAware Approximate
03:38PM 24.3375 -110.4641 153° Southeast  Level FlightAware Approximate
03:39PM 24.2680 -110.4257 154° Southeast  Level FlightAware Approximate
03:40PM 24.1979 -110.3887 152° Southeast  Level FlightAware Approximate
03:41PM 24.1294 -110.3481 193° South  Level FlightAware Approximate
03:42PM 24.0536 -110.3673 50° Northeast  Level Estimated
03:43PM 24.0667 -110.3500 298° West  Level FlightAware Approximate
03:44PM 24.1031 -110.4254 118° Southeast  Level Estimated
03:45PM 24.0667 -110.3500 298° West  Level FlightAware Approximate
03:46PM 24.1031 -110.4254 298° West  Level Estimated